Time;durP1;ratioP1;P1;durP2;ratioP2;P2;SDS_P1;SDS_P2;PMS_P1;PMS_P2;Temp;Humidity;BMP_temperature;BMP_pressure;BME280_temperature;BME280_humidity;BME280_pressure;Samples;Min_cycle;Max_cycle;Signal;HPM_P1;HPM_P2
2022/09/18 00:01:31;;;;;;;5.20;1.63;;;13.70;70.40;;;16.53;52.33;100918.97;5035099;28;20225;-56
2022/09/18 00:04:01;;;;;;;5.23;1.63;;;13.70;70.90;;;16.53;52.68;100913.66;5035525;28;20194;-55
2022/09/18 00:06:34;;;;;;;5.40;1.70;;;13.70;71.20;;;16.49;52.54;100905.25;5036522;28;20202;-56
2022/09/18 00:09:05;;;;;;;6.80;1.70;;;13.60;71.70;;;16.48;52.65;100903.63;5035254;28;20183;-56
2022/09/18 00:11:36;;;;;;;6.93;1.90;;;13.60;71.10;;;16.48;52.82;100921.38;5034457;28;20217;-55
2022/09/18 00:14:05;;;;;;;6.17;1.70;;;13.60;71.60;;;16.47;52.79;100917.13;5033807;28;20248;-55
2022/09/18 00:16:33;;;;;;;6.40;2.00;;;13.60;71.60;;;16.45;52.91;100912.00;5034295;28;20194;-53
2022/09/18 00:19:01;;;;;;;6.97;1.60;;;13.60;71.80;;;16.43;52.92;100918.53;5034717;28;20738;-53
2022/09/18 00:21:31;;;;;;;4.20;2.00;;;13.60;71.60;;;16.41;53.25;100920.59;5033997;28;20253;-56
2022/09/18 00:24:00;;;;;;;5.10;1.67;;;13.60;72.20;;;16.40;53.49;100924.28;5035587;28;20654;-57
2022/09/18 00:26:30;;;;;;;3.40;1.50;;;13.50;72.30;;;16.38;53.54;100921.81;5034292;28;20245;-54
2022/09/18 00:28:58;;;;;;;6.90;1.90;;;13.50;72.40;;;16.38;53.70;100923.69;5034505;28;20728;-54
2022/09/18 00:31:28;;;;;;;5.37;1.73;;;13.50;72.40;;;16.36;53.50;100928.38;5033991;28;20240;-53
2022/09/18 00:33:57;;;;;;;6.80;2.33;;;13.50;72.40;;;16.34;53.71;100933.06;5034293;28;20265;-55
2022/09/18 00:36:24;;;;;;;5.33;1.67;;;13.50;72.60;;;16.33;53.47;100934.13;5034223;28;20205;-54
2022/09/18 00:38:53;;;;;;;6.30;2.30;;;13.40;72.40;;;16.28;53.84;100932.88;5033939;28;20691;-54
2022/09/18 00:41:23;;;;;;;9.20;1.80;;;13.40;72.70;;;16.24;53.79;100936.97;5036680;28;20214;-55
2022/09/18 00:43:52;;;;;;;6.37;2.30;;;13.40;72.80;;;16.22;54.19;100930.22;5034616;28;20683;-55
2022/09/18 00:46:28;;;;;;;6.00;2.23;;;13.40;72.70;;;16.16;53.44;100933.72;5035764;28;20655;-57
2022/09/18 00:49:05;;;;;;;6.00;2.10;;;13.30;72.60;;;16.12;54.07;100937.78;5034197;28;20194;-54
2022/09/18 00:51:35;;;;;;;6.40;1.57;;;13.30;72.70;;;16.07;53.95;100934.94;5033747;28;20204;-56
2022/09/18 00:54:20;;;;;;;8.67;2.00;;;13.30;72.50;;;16.00;54.04;100945.56;5034036;28;20215;-53
2022/09/18 00:56:52;;;;;;;4.47;1.50;;;13.20;72.40;;;15.98;54.07;100937.00;5032802;28;20193;-54
2022/09/18 00:59:25;;;;;;;6.13;1.80;;;13.20;72.50;;;15.96;53.99;100939.03;5035176;28;20513;-57
2022/09/18 01:01:55;;;;;;;3.40;1.33;;;13.20;72.50;;;15.96;54.03;100928.41;5034504;28;20291;-55
2022/09/18 01:04:24;;;;;;;5.80;1.87;;;13.10;72.50;;;15.98;53.80;100920.25;5034591;28;20217;-54
2022/09/18 01:07:04;;;;;;;4.87;1.70;;;13.10;72.50;;;15.98;53.66;100921.06;5034329;28;20191;-55
2022/09/18 01:09:44;;;;;;;4.33;1.73;;;13.10;72.40;;;16.00;53.86;100929.63;5033148;28;20626;-57
2022/09/18 01:12:25;;;;;;;5.93;1.70;;;13.10;72.50;;;16.04;53.84;100922.91;5034383;28;20206;-54
2022/09/18 01:15:04;;;;;;;6.77;2.23;;;13.10;72.50;;;16.07;53.94;100924.31;5036186;28;20218;-52
2022/09/18 01:17:44;;;;;;;11.10;1.90;;;13.10;72.40;;;16.08;53.60;100931.28;5052005;28;20220;-53
2022/09/18 01:20:34;;;;;;;4.67;1.80;;;13.20;72.20;;;16.07;53.46;100940.25;5053210;28;20201;-53
2022/09/18 01:23:41;;;;;;;7.60;1.73;;;13.20;72.10;;;16.03;53.61;100931.06;5054647;28;20225;-55
2022/09/18 01:26:36;;;;;;;5.73;1.97;;;13.20;72.00;;;16.01;53.42;100925.97;5054964;28;20198;-56
2022/09/18 01:29:12;;;;;;;9.87;1.87;;;13.20;71.90;;;16.03;53.80;100921.25;5054618;28;20224;-55
2022/09/18 01:31:50;;;;;;;4.80;1.90;;;13.20;72.10;;;16.04;53.64;100928.22;5034678;28;20638;-53
2022/09/18 01:34:30;;;;;;;4.63;2.00;;;13.20;72.10;;;16.05;53.52;100910.44;5034300;28;20864;-56
2022/09/18 01:37:05;;;;;;;7.10;2.70;;;13.20;71.90;;;16.03;53.53;100918.63;5035096;28;20276;-53
2022/09/18 01:39:41;;;;;;;5.93;2.20;;;13.20;71.90;;;16.02;53.34;100922.28;5034914;28;20194;-53
2022/09/18 01:42:12;;;;;;;7.40;2.00;;;13.20;71.90;;;16.01;53.50;100917.19;5033798;28;20210;-55
2022/09/18 01:44:45;;;;;;;6.20;2.03;;;13.20;71.70;;;15.98;53.36;100918.41;5034869;28;20211;-52
2022/09/18 01:47:17;;;;;;;3.50;1.60;;;13.20;71.90;;;15.95;53.53;100918.81;5046303;28;20190;-54
2022/09/18 01:49:47;;;;;;;7.77;1.80;;;13.10;71.90;;;15.95;53.62;100918.81;5054229;28;20182;-52
2022/09/18 01:52:22;;;;;;;3.23;1.57;;;13.10;71.90;;;15.91;53.65;100912.28;5055056;28;20213;-55
2022/09/18 01:54:56;;;;;;;8.37;2.23;;;13.10;72.00;;;15.90;53.57;100915.94;5058303;28;20225;-53
2022/09/18 01:57:32;;;;;;;5.97;2.03;;;13.10;72.00;;;15.90;53.90;100923.13;5057893;28;20531;-56
2022/09/18 02:00:06;;;;;;;7.30;2.00;;;13.10;72.10;;;15.88;53.58;100925.97;5057783;28;20511;-54
2022/09/18 02:02:41;;;;;;;5.03;1.67;;;13.00;72.00;;;15.90;53.77;100929.22;5057642;28;20220;-52
2022/09/18 02:05:17;;;;;;;6.63;1.93;;;13.10;72.30;;;15.89;53.69;100922.28;5056973;28;20204;-53
2022/09/18 02:07:57;;;;;;;7.00;2.00;;;13.10;72.20;;;15.88;53.94;100925.97;5058498;28;20189;-54
2022/09/18 02:10:27;;;;;;;6.27;1.73;;;13.00;72.20;;;15.89;53.68;100922.28;5055968;28;20236;-53
2022/09/18 02:12:56;;;;;;;5.00;1.20;;;13.00;72.00;;;15.88;53.78;100920.66;5056180;28;20217;-56
2022/09/18 02:15:31;;;;;;;3.27;1.50;;;13.00;72.00;;;15.90;54.06;100928.44;5055765;28;20574;-52
2022/09/18 02:18:05;;;;;;;4.93;1.53;;;13.00;72.10;;;15.91;53.67;100925.56;5056185;28;21067;-53
2022/09/18 02:20:36;;;;;;;2.90;0.97;;;13.00;72.00;;;15.93;53.40;100934.13;5053942;28;20189;-56
2022/09/18 02:23:07;;;;;;;6.47;1.80;;;13.00;71.90;;;15.90;53.66;100923.91;5055789;28;20578;-56
2022/09/18 02:25:42;;;;;;;9.90;1.83;;;13.10;71.80;;;15.90;53.81;100929.22;5055547;28;20658;-54
2022/09/18 02:28:15;;;;;;;4.83;1.53;;;13.10;71.90;;;15.92;53.51;100929.88;5054999;28;20631;-58
2022/09/18 02:30:44;;;;;;;3.67;1.50;;;13.00;71.90;;;15.92;53.44;100921.91;5055456;28;20224;-55
2022/09/18 02:33:27;;;;;;;5.20;1.43;;;13.00;72.00;;;15.89;53.55;100922.28;5046249;28;20214;-56
2022/09/18 02:36:39;;;;;;;3.17;1.50;;;13.00;72.00;;;15.87;53.24;100918.22;5036657;28;20182;-53
2022/09/18 02:39:40;;;;;;;4.03;1.40;;;13.10;72.00;;;15.86;53.68;100919.22;5032954;28;20206;-52
2022/09/18 02:42:26;;;;;;;2.57;1.10;;;13.10;72.00;;;15.84;53.61;100914.13;5031943;28;20230;-54
2022/09/18 02:45:07;;;;;;;7.97;1.33;;;13.10;72.00;;;15.84;53.57;100913.31;5035792;28;20175;-56
2022/09/18 02:47:56;;;;;;;4.73;1.20;;;13.10;72.00;;;15.80;53.72;100917.41;5044599;28;20182;-56
2022/09/18 02:50:33;;;;;;;7.30;1.60;;;13.00;72.00;;;15.76;53.87;100916.97;5054529;28;20186;-55
2022/09/18 02:53:09;;;;;;;3.13;1.50;;;13.00;72.20;;;15.72;53.92;100901.66;5055178;28;20210;-53
2022/09/18 02:55:45;;;;;;;6.60;1.43;;;13.00;72.20;;;15.67;54.15;100899.63;5054665;28;20761;-55
2022/09/18 02:58:20;;;;;;;3.53;1.47;;;12.90;72.20;;;15.65;54.24;100904.31;5055000;28;20251;-53
2022/09/18 03:00:49;;;;;;;3.30;1.33;;;12.90;72.50;;;15.65;54.00;100901.66;5054207;28;20186;-53
2022/09/18 03:03:18;;;;;;;6.63;1.93;;;12.90;72.70;;;15.64;54.27;100908.00;5054380;28;20566;-55
2022/09/18 03:05:45;;;;;;;4.87;1.80;;;12.80;72.80;;;15.64;54.60;100905.34;5036951;28;20210;-55
2022/09/18 03:08:12;;;;;;;6.40;2.13;;;12.80;72.90;;;15.62;54.41;100904.72;5034813;28;20190;-54
2022/09/18 03:10:40;;;;;;;4.50;1.63;;;12.80;73.10;;;15.60;54.74;100898.78;5034260;28;20250;-56
2022/09/18 03:13:08;;;;;;;7.20;2.00;;;12.80;73.20;;;15.58;54.45;100896.34;5034522;28;20217;-54
2022/09/18 03:15:35;;;;;;;5.57;1.70;;;12.80;73.30;;;15.55;54.37;100895.94;5034788;28;20273;-54
2022/09/18 03:18:02;;;;;;;5.47;1.90;;;12.70;73.30;;;15.51;54.69;100900.84;5034460;28;20190;-54
2022/09/18 03:20:31;;;;;;;4.37;1.67;;;12.70;73.30;;;15.50;54.68;100903.69;5035362;28;20642;-53
2022/09/18 03:22:58;;;;;;;5.37;1.17;;;12.70;73.40;;;15.48;54.89;100897.75;5053806;28;20206;-56
2022/09/18 03:25:26;;;;;;;6.53;1.97;;;12.70;73.60;;;15.46;54.93;100908.59;5054642;28;20178;-53
2022/09/18 03:27:54;;;;;;;8.37;1.50;;;12.70;73.70;;;15.46;55.27;100910.41;5055011;28;20190;-55
2022/09/18 03:30:22;;;;;;;6.80;2.20;;;12.60;73.90;;;15.42;54.93;100909.16;5054660;28;20235;-54
2022/09/18 03:32:49;;;;;;;7.23;1.63;;;12.60;73.80;;;15.40;55.40;100908.56;5054399;28;20214;-57
2022/09/18 03:35:16;;;;;;;4.90;1.60;;;12.60;74.00;;;15.38;55.17;100907.94;5053945;28;20708;-55
2022/09/18 03:37:45;;;;;;;6.17;1.60;;;12.60;74.00;;;15.35;55.40;100903.03;5053659;28;20604;-55
2022/09/18 03:40:13;;;;;;;7.63;1.70;;;12.60;74.00;;;15.34;55.36;100907.50;5053503;28;20615;-53
2022/09/18 03:42:42;;;;;;;7.37;1.50;;;12.60;74.00;;;15.35;55.59;100908.34;5053282;28;20627;-55
2022/09/18 03:45:11;;;;;;;8.03;1.90;;;12.50;74.20;;;15.33;55.58;100900.56;5054058;28;20265;-54
2022/09/18 03:47:38;;;;;;;5.23;1.63;;;12.50;74.10;;;15.30;55.15;100900.16;5053555;28;20240;-55
2022/09/18 03:50:06;;;;;;;5.60;1.63;;;12.50;74.20;;;15.28;55.34;100899.56;5053432;28;20824;-52
2022/09/18 03:52:34;;;;;;;7.60;1.23;;;12.50;74.20;;;15.27;55.55;100900.56;5053212;28;20260;-53
2022/09/18 03:55:03;;;;;;;3.23;1.87;;;12.50;74.40;;;15.26;55.42;100901.59;5052651;28;20267;-55
2022/09/18 03:57:30;;;;;;;4.47;1.70;;;12.50;74.40;;;15.25;55.39;100907.91;5053477;28;20186;-53
2022/09/18 03:59:58;;;;;;;7.37;2.13;;;12.40;74.30;;;15.24;55.72;100900.94;5053837;28;20221;-54
2022/09/18 04:02:25;;;;;;;5.33;1.77;;;12.40;74.40;;;15.26;55.68;100912.19;5052958;28;20221;-53
2022/09/18 04:04:52;;;;;;;5.13;1.70;;;12.40;74.60;;;15.32;55.33;100909.56;5055496;28;20712;-55
2022/09/18 04:07:20;;;;;;;3.73;1.47;;;12.40;74.70;;;15.39;55.72;100914.88;5055181;28;20198;-55
2022/09/18 04:09:47;;;;;;;4.57;1.43;;;12.50;75.00;;;15.44;55.54;100917.72;5055543;28;20194;-53
2022/09/18 04:12:16;;;;;;;5.27;1.60;;;12.50;75.00;;;15.50;55.48;100911.63;5047618;28;20222;-54
2022/09/18 04:14:43;;;;;;;7.70;1.43;;;12.50;75.10;;;15.55;55.44;100917.97;5035497;28;20210;-56
2022/09/18 04:17:10;;;;;;;9.17;1.70;;;12.50;75.10;;;15.58;55.25;100906.16;5033886;28;20603;-53
2022/09/18 04:19:37;;;;;;;5.63;1.63;;;12.60;74.90;;;15.58;55.05;100903.50;5034200;28;20186;-54
2022/09/18 04:22:05;;;;;;;6.87;1.60;;;12.60;75.60;;;15.59;55.35;100889.22;5032628;28;20629;-56
2022/09/18 04:24:34;;;;;;;5.40;1.60;;;12.70;74.70;;;15.62;55.46;100894.09;5033093;28;20218;-51
2022/09/18 04:27:01;;;;;;;4.00;1.53;;;12.70;74.60;;;15.62;55.18;100898.63;5034509;28;20194;-53
2022/09/18 04:29:30;;;;;;;4.97;1.83;;;12.70;74.30;;;15.61;55.20;100897.78;5036221;28;20659;-56
2022/09/18 04:31:57;;;;;;;5.80;1.70;;;12.70;74.10;;;15.60;54.80;100898.78;5033873;28;20214;-56
2022/09/18 04:34:24;;;;;;;3.57;1.33;;;12.70;74.10;;;15.57;54.82;100891.22;5034295;28;20218;-52
2022/09/18 04:36:52;;;;;;;4.90;1.13;;;12.70;74.00;;;15.56;55.17;100894.94;5033538;28;20338;-56
2022/09/18 04:39:19;;;;;;;3.60;1.50;;;12.70;74.00;;;15.53;54.94;100884.72;5032541;28;20241;-57
2022/09/18 04:41:46;;;;;;;4.40;1.53;;;12.70;74.10;;;15.50;54.97;100875.31;5031980;28;20207;-53
2022/09/18 04:44:13;;;;;;;4.60;1.50;;;12.70;74.10;;;15.47;55.34;100877.59;5032564;28;20187;-54
2022/09/18 04:46:42;;;;;;;7.60;1.73;;;12.60;73.90;;;15.41;55.17;100875.69;5033260;28;20598;-56
2022/09/18 04:49:10;;;;;;;2.17;1.47;;;12.60;73.90;;;15.39;55.49;100883.84;5032164;28;20194;-54
2022/09/18 04:51:37;;;;;;;6.17;1.43;;;12.60;74.00;;;15.43;55.18;100905.47;5031686;28;20217;-54
2022/09/18 04:54:04;;;;;;;4.13;1.37;;;12.60;74.20;;;15.47;55.39;100896.16;5032271;28;20190;-53
2022/09/18 04:56:32;;;;;;;4.73;1.50;;;12.60;74.60;;;15.53;55.48;100890.84;5032364;28;20194;-55
2022/09/18 04:59:02;;;;;;;3.37;1.27;;;12.60;74.70;;;15.57;55.04;100885.94;5032295;28;20191;-54
2022/09/18 05:01:30;;;;;;;5.77;1.77;;;12.70;74.60;;;15.58;54.85;100887.56;5031606;28;20257;-55
2022/09/18 05:03:58;;;;;;;4.43;1.47;;;12.70;74.40;;;15.56;55.06;100882.50;5045763;28;20605;-55
2022/09/18 05:06:26;;;;;;;4.57;1.27;;;12.70;74.20;;;15.53;55.07;100879.41;5052208;28;20550;-53
2022/09/18 05:08:53;;;;;;;8.00;2.13;;;12.70;74.10;;;15.48;55.30;100872.06;5052353;28;20217;-54
2022/09/18 05:11:20;;;;;;;5.37;1.53;;;12.70;74.10;;;15.42;55.12;100872.03;5051747;28;20562;-56
2022/09/18 05:13:48;;;;;;;5.43;1.40;;;12.60;74.10;;;15.36;55.38;100872.81;5051932;28;20225;-55
2022/09/18 05:16:15;;;;;;;5.33;1.30;;;12.60;74.20;;;15.31;55.63;100864.66;5051943;28;20210;-54
2022/09/18 05:18:43;;;;;;;3.93;1.73;;;12.60;74.30;;;15.29;55.77;100877.31;5051997;28;20199;-55
2022/09/18 05:21:12;;;;;;;4.03;1.30;;;12.50;74.40;;;15.25;55.81;100876.09;5037805;28;20245;-56
2022/09/18 05:23:39;;;;;;;6.37;1.70;;;12.50;74.60;;;15.24;55.84;100874.44;5031980;28;20752;-55
2022/09/18 05:26:06;;;;;;;3.87;1.40;;;12.50;74.70;;;15.20;55.88;100883.81;5031772;28;20205;-54
2022/09/18 05:28:33;;;;;;;4.57;1.47;;;12.50;74.80;;;15.19;56.00;100876.91;5032024;28;20198;-56
2022/09/18 05:31:01;;;;;;;6.63;1.50;;;12.40;74.80;;;15.18;55.95;100872.59;5031467;28;20217;-54
2022/09/18 05:33:29;;;;;;;4.90;1.57;;;12.40;75.00;;;15.18;55.95;100880.56;5031688;28;20211;-54
2022/09/18 05:35:57;;;;;;;5.00;1.77;;;12.40;75.10;;;15.15;56.18;100876.47;5031864;28;20210;-56
2022/09/18 05:38:26;;;;;;;5.53;1.70;;;12.40;75.20;;;15.11;56.60;100888.50;5032990;28;20199;-54
2022/09/18 05:40:58;;;;;;;4.60;1.47;;;12.30;75.20;;;15.08;56.32;100886.25;5031396;28;20707;-55
2022/09/18 05:43:25;;;;;;;7.57;1.47;;;12.30;75.50;;;15.08;56.52;100890.72;5031689;28;20206;-55
2022/09/18 05:45:53;;;;;;;5.00;1.43;;;12.30;75.60;;;15.10;56.26;100883.38;5031698;28;20252;-54
2022/09/18 05:48:21;;;;;;;5.13;1.80;;;12.30;75.70;;;15.13;56.45;100888.28;5031719;28;20190;-55
2022/09/18 05:50:50;;;;;;;4.50;1.50;;;12.30;76.00;;;15.15;56.43;100884.41;5031251;28;20186;-55
2022/09/18 05:53:20;;;;;;;4.90;1.30;;;12.30;76.10;;;15.18;56.65;100885.84;5031450;28;20214;-55
2022/09/18 05:55:48;;;;;;;6.80;1.90;;;12.30;76.20;;;15.18;56.75;100891.16;5032526;28;20218;-56
2022/09/18 05:58:18;;;;;;;7.80;1.67;;;12.30;76.30;;;15.15;56.97;100884.41;5031503;28;20194;-60
2022/09/18 06:00:46;;;;;;;8.13;1.90;;;12.30;76.30;;;15.14;57.01;100890.72;5031104;28;20655;-54
2022/09/18 06:03:15;;;;;;;5.67;1.77;;;12.30;76.50;;;15.19;57.14;100884.84;5031149;28;20667;-55
2022/09/18 06:05:50;;;;;;;3.23;1.47;;;12.40;76.90;;;15.21;57.04;100890.78;5031426;28;20178;-56
2022/09/18 06:08:18;;;;;;;5.87;1.80;;;12.40;77.00;;;15.27;57.04;100889.94;5031383;28;20658;-56
2022/09/18 06:10:46;;;;;;;6.93;1.63;;;12.40;77.00;;;15.33;57.23;100889.16;5032129;28;20195;-52
2022/09/18 06:13:17;;;;;;;6.97;1.40;;;12.40;77.20;;;15.43;57.19;100900.16;5031213;28;20233;-52
2022/09/18 06:15:47;;;;;;;5.47;2.00;;;12.50;77.50;;;15.53;56.83;100896.16;5031395;28;20207;-54
2022/09/18 06:18:15;;;;;;;7.60;1.97;;;12.50;77.50;;;15.66;56.88;100889.22;5031969;28;20191;-54
2022/09/18 06:20:49;;;;;;;7.87;1.90;;;12.70;77.80;;;15.75;56.84;100883.50;5031290;28;20574;-53
2022/09/18 06:23:17;;;;;;;4.30;1.50;;;12.70;77.70;;;15.80;57.17;100883.72;5031630;28;20213;-55
2022/09/18 06:25:44;;;;;;;3.30;1.40;;;12.80;77.70;;;15.85;56.89;100878.59;5031522;28;20186;-54
2022/09/18 06:28:11;;;;;;;4.57;1.43;;;12.90;77.70;;;15.91;57.22;100880.44;5032333;28;20706;-55
2022/09/18 06:30:40;;;;;;;3.50;1.30;;;12.90;77.70;;;15.94;56.86;100881.84;5031128;28;20245;-55
2022/09/18 06:33:09;;;;;;;3.90;1.53;;;13.00;77.60;;;15.96;56.78;100875.31;5031116;28;20304;-54
2022/09/18 06:35:37;;;;;;;6.70;1.50;;;13.00;77.30;;;15.99;56.68;100888.19;5031401;28;20265;-56
2022/09/18 06:38:06;;;;;;;4.33;1.30;;;13.00;77.30;;;16.05;56.68;100890.00;5032070;28;20190;-55
2022/09/18 06:40:34;;;;;;;5.77;1.77;;;13.10;77.40;;;16.13;56.83;100886.31;5034763;28;20186;-55
2022/09/18 06:43:02;;;;;;;5.67;1.83;;;13.10;77.50;;;16.16;56.83;100884.06;5034641;28;20206;-56
2022/09/18 06:45:31;;;;;;;5.27;1.67;;;13.20;77.40;;;16.20;56.26;100877.34;5035359;28;20710;-55
2022/09/18 06:48:03;;;;;;;6.90;1.80;;;13.20;77.20;;;16.24;56.10;100889.16;5034541;28;20256;-53
2022/09/18 06:50:31;;;;;;;2.97;1.33;;;13.20;76.90;;;16.33;56.45;100886.28;5034324;28;20253;-55
2022/09/18 06:53:01;;;;;;;6.10;1.60;;;13.30;77.00;;;16.41;56.35;100896.69;5034495;28;20683;-55
2022/09/18 06:55:30;;;;;;;4.87;1.97;;;13.30;77.00;;;16.56;56.17;100891.97;5034433;28;20563;-55
2022/09/18 06:57:59;;;;;;;4.03;1.50;;;13.40;77.10;;;16.82;55.89;100897.19;5034546;28;20194;-53
2022/09/18 07:00:27;;;;;;;5.13;1.90;;;13.50;77.20;;;16.99;55.36;100890.38;5034287;28;20191;-55
2022/09/18 07:02:56;;;;;;;3.77;1.87;;;13.70;76.70;;;17.10;55.10;100895.00;5035272;28;20230;-56
2022/09/18 07:05:28;;;;;;;6.23;1.80;;;13.80;76.10;;;17.40;55.14;100896.03;5034111;28;20186;-55
2022/09/18 07:07:56;;;;;;;4.20;1.27;;;14.00;76.00;;;17.82;54.38;100891.06;5034393;28;20265;-56
2022/09/18 07:10:25;;;;;;;2.63;1.40;;;14.20;75.40;;;18.28;53.42;100891.41;5034141;28;20209;-52
2022/09/18 07:12:55;;;;;;;5.10;1.33;;;14.60;75.10;;;18.47;52.12;100890.41;5034333;28;20214;-54
2022/09/18 07:15:24;;;;;;;4.97;1.70;;;14.80;72.80;;;18.48;51.54;100900.06;5034220;28;20195;-55
2022/09/18 07:17:54;;;;;;;4.53;1.53;;;15.00;71.80;;;18.39;51.33;100905.88;5034810;28;20191;-55
2022/09/18 07:20:21;;;;;;;5.73;1.50;;;15.10;70.80;;;18.30;51.45;100907.19;5034450;28;20248;-57
2022/09/18 07:22:54;;;;;;;2.73;1.63;;;15.20;70.50;;;18.23;51.34;100916.06;5034084;28;20741;-53
2022/09/18 07:25:22;;;;;;;4.27;1.30;;;15.20;70.40;;;18.15;51.17;100912.88;5034119;28;20182;-55
2022/09/18 07:27:49;;;;;;;2.50;1.23;;;15.10;70.10;;;18.02;51.47;100911.16;5033910;28;20195;-56
2022/09/18 07:30:17;;;;;;;4.80;1.57;;;15.00;70.10;;;17.92;51.74;100907.38;5033651;28;20193;-55
2022/09/18 07:32:45;;;;;;;2.33;1.17;;;14.90;70.70;;;17.85;51.96;100901.28;5047635;28;20791;-55
2022/09/18 07:35:13;;;;;;;4.77;1.40;;;14.90;71.20;;;17.85;52.32;100903.94;5054033;28;20339;-55
2022/09/18 07:37:40;;;;;;;3.37;1.17;;;14.80;71.60;;;17.91;52.21;100895.88;5049526;28;20190;-54
2022/09/18 07:40:11;;;;;;;4.27;1.60;;;14.80;71.90;;;18.02;52.29;100897.00;5035326;28;20248;-54
2022/09/18 07:42:39;;;;;;;7.93;1.67;;;14.80;73.10;;;18.15;52.25;100888.91;5033800;28;20571;-55
2022/09/18 07:45:07;;;;;;;5.07;1.70;;;14.90;72.60;;;18.25;52.01;100894.53;5034330;28;20203;-52
2022/09/18 07:47:35;;;;;;;2.97;1.53;;;14.90;72.20;;;18.46;52.16;100896.81;5033404;28;20190;-56
2022/09/18 07:50:02;;;;;;;4.97;1.43;;;15.00;72.50;;;18.70;51.39;100879.91;5053094;28;20222;-56
2022/09/18 07:52:30;;;;;;;4.13;1.87;;;15.20;72.10;;;18.98;51.01;100887.34;5054571;28;20346;-56
2022/09/18 07:54:58;;;;;;;2.97;1.03;;;15.30;71.90;;;19.05;50.37;100884.56;5053764;28;20220;-56
2022/09/18 07:57:26;;;;;;;3.43;1.20;;;15.40;71.10;;;19.05;50.10;100890.72;5053545;28;20190;-56
2022/09/18 07:59:53;;;;;;;3.40;1.50;;;15.50;70.50;;;19.11;50.12;100887.16;5054349;28;20595;-54
2022/09/18 08:02:21;;;;;;;5.27;1.30;;;15.60;70.20;;;19.30;49.76;100880.72;5053682;28;20225;-54
2022/09/18 08:04:48;;;;;;;3.03;1.10;;;15.70;69.90;;;20.04;49.83;100880.16;5052536;28;20194;-54
2022/09/18 08:07:15;;;;;;;6.20;1.70;;;16.00;70.90;;;20.92;47.31;100879.88;5054747;28;20252;-56
2022/09/18 08:09:42;;;;;;;7.17;1.63;;;16.30;70.00;;;21.72;45.18;100875.16;5053837;28;20685;-55
2022/09/18 08:12:10;;;;;;;4.90;1.80;;;16.80;67.60;;;22.19;44.14;100879.13;5053011;28;20214;-54
2022/09/18 08:14:39;;;;;;;3.20;1.53;;;17.30;66.10;;;22.33;44.17;100884.94;5053561;28;20261;-56
2022/09/18 08:17:07;;;;;;;3.93;1.17;;;17.70;65.40;;;22.15;43.83;100890.59;5053623;28;20594;-55
2022/09/18 08:19:34;;;;;;;9.63;1.63;;;18.00;63.90;;;21.80;44.11;100879.31;5053387;28;20198;-60
2022/09/18 08:22:03;;;;;;;2.17;1.00;;;18.00;62.80;;;21.36;44.69;100883.66;5051022;28;20268;-53
2022/09/18 08:24:30;;;;;;;4.30;1.43;;;18.00;62.80;;;21.02;45.68;100882.75;5052824;28;20190;-56
2022/09/18 08:27:02;;;;;;;4.63;1.60;;;17.80;63.10;;;20.69;45.89;100867.41;5052916;28;20186;-53
2022/09/18 08:29:29;;;;;;;4.23;1.50;;;17.60;63.30;;;20.39;46.17;100874.00;5052930;28;20201;-56
2022/09/18 08:31:58;;;;;;;5.40;1.80;;;17.40;63.80;;;20.08;46.93;100867.97;5052567;28;20210;-53
2022/09/18 08:34:26;;;;;;;3.13;1.27;;;17.20;64.50;;;19.93;47.46;100872.94;5052629;28;20316;-57
2022/09/18 08:36:54;;;;;;;3.97;1.70;;;17.00;66.30;;;19.87;48.25;100865.84;5052558;28;20662;-56
2022/09/18 08:39:22;;;;;;;2.30;1.20;;;16.80;66.10;;;20.30;48.46;100865.50;5044237;28;20272;-55
2022/09/18 08:42:09;;;;;;;4.80;1.37;;;16.80;67.60;;;20.61;46.92;100869.66;5032143;28;20199;-55
2022/09/18 08:44:47;;;;;;;5.67;1.63;;;16.90;66.70;;;21.24;45.92;100865.00;5032607;28;20624;-56
2022/09/18 08:47:22;;;;;;;4.70;1.50;;;17.10;65.80;;;22.40;45.02;100868.66;5032422;28;20690;-57
2022/09/18 08:49:56;;;;;;;4.07;1.70;;;17.60;66.20;;;23.60;42.60;100869.19;5032382;28;20202;-54
2022/09/18 08:52:27;;;;;;;2.93;1.33;;;18.20;64.30;;;24.27;40.22;100863.19;5032092;28;20267;-55
2022/09/18 08:55:03;;;;;;;3.30;1.40;;;18.90;61.70;;;25.35;39.42;100862.16;5032493;28;20191;-54
2022/09/18 08:57:38;;;;;;;4.30;1.40;;;19.60;60.60;;;26.52;36.37;100850.13;5051107;28;20693;-56
2022/09/18 09:00:15;;;;;;;3.67;1.80;;;20.40;58.40;;;27.34;35.14;100850.16;5052609;28;20189;-56
2022/09/18 09:02:48;;;;;;;2.10;1.43;;;21.10;56.10;;;27.75;33.81;100850.66;5051873;28;20225;-57
2022/09/18 09:05:19;;;;;;;2.93;1.23;;;21.80;54.10;;;27.35;32.89;100853.69;5052593;28;20650;-55
2022/09/18 09:08:39;;;;;;;4.43;1.40;;;22.10;51.60;;;26.08;33.48;100852.66;5052583;28;20190;-56
2022/09/18 09:11:16;;;;;;;3.23;1.23;;;21.90;49.60;;;25.35;35.47;100848.69;5027354;28;20232;-56
2022/09/18 09:14:23;;;;;;;2.83;1.33;;;21.60;50.20;;;25.58;35.77;100845.47;5050612;28;20218;-56
2022/09/18 09:17:22;;;;;;;4.63;1.40;;;21.40;51.30;;;26.25;34.67;100837.00;5032070;28;20293;-57
2022/09/18 09:20:02;;;;;;;5.07;1.40;;;21.50;51.60;;;26.30;33.79;100836.97;5031952;28;20194;-58
2022/09/18 09:22:41;;;;;;;5.13;1.50;;;21.70;50.80;;;25.99;34.94;100830.03;5032851;28;20214;-55
2022/09/18 09:25:21;;;;;;;4.40;1.40;;;21.70;50.60;;;26.53;33.87;100828.22;5032304;28;20260;-54
2022/09/18 09:27:57;;;;;;;3.10;1.43;;;21.90;50.60;;;27.18;33.28;100823.53;5031722;28;20178;-56
2022/09/18 09:30:29;;;;;;;3.03;1.50;;;22.10;51.60;;;27.69;32.54;100819.34;5042319;28;20232;-57
2022/09/18 09:33:10;;;;;;;3.57;1.37;;;22.40;50.00;;;28.33;31.86;100818.09;5051303;28;20213;-55
2022/09/18 09:35:45;;;;;;;3.50;1.73;;;22.80;49.50;;;28.89;30.40;100810.03;5051625;28;20194;-54
2022/09/18 09:38:40;;;;;;;2.03;1.20;;;23.30;47.90;;;28.92;29.77;100802.13;5051929;28;20166;-56
2022/09/18 09:41:21;;;;;;;4.83;1.50;;;23.60;46.40;;;28.08;30.75;100798.34;5051210;28;20186;-56
2022/09/18 09:44:02;;;;;;;2.50;1.30;;;23.60;45.60;;;27.56;31.50;100803.75;5051606;28;20621;-55
2022/09/18 09:46:54;;;;;;;5.73;1.47;;;23.40;45.70;;;27.22;31.09;100786.75;5047518;28;20179;-56
2022/09/18 09:49:26;;;;;;;2.60;1.33;;;23.20;45.10;;;26.74;32.29;100778.41;5031762;28;20183;-55
2022/09/18 09:52:07;;;;;;;3.33;1.47;;;23.00;45.50;;;26.99;32.62;100787.47;5032122;28;20617;-54
2022/09/18 09:54:36;;;;;;;3.00;1.33;;;22.90;46.70;;;26.68;32.01;100782.25;5031765;28;20710;-53
2022/09/18 09:57:20;;;;;;;4.07;1.77;;;22.70;46.40;;;25.89;32.62;100792.28;5030787;28;20280;-56
2022/09/18 10:00:06;;;;;;;4.73;1.90;;;22.40;46.10;;;25.09;33.95;100806.63;5031790;28;20189;-55
2022/09/18 10:02:55;;;;;;;3.73;1.43;;;22.10;46.70;;;24.34;35.17;100826.09;5030363;28;20264;-56
2022/09/18 10:05:31;;;;;;;2.73;1.20;;;21.50;47.70;;;23.67;36.83;100837.50;5032174;28;20225;-57
2022/09/18 10:08:08;;;;;;;2.63;1.30;;;21.00;49.60;;;23.17;38.03;100837.06;5030608;28;20290;-55
2022/09/18 10:10:44;;;;;;;3.20;1.63;;;20.50;51.80;;;22.67;39.66;100873.06;5030171;28;20252;-55
2022/09/18 10:13:19;;;;;;;1.63;0.90;;;20.00;53.30;;;22.09;40.09;100845.97;5032349;28;20225;-53
2022/09/18 10:15:52;;;;;;;3.00;1.60;;;19.50;53.40;;;21.63;41.15;100846.34;5035316;28;20621;-54
2022/09/18 10:18:25;;;;;;;2.67;1.67;;;19.10;54.90;;;21.22;42.35;100856.38;5035232;28;20233;-56
2022/09/18 10:21:01;;;;;;;3.80;1.47;;;18.70;56.30;;;20.80;43.34;100855.06;5036204;28;20202;-55
2022/09/18 10:23:39;;;;;;;4.07;1.53;;;18.20;57.70;;;20.34;44.11;100852.50;5035092;28;20210;-55
2022/09/18 10:26:16;;;;;;;3.60;1.20;;;17.80;58.70;;;19.91;44.23;100839.50;5035234;28;20605;-56
2022/09/18 10:28:43;;;;;;;2.80;1.03;;;17.40;58.10;;;19.52;44.16;100843.66;5035087;28;20586;-55
2022/09/18 10:31:13;;;;;;;3.13;1.40;;;17.00;57.20;;;19.18;44.26;100847.03;5034468;28;20191;-55
2022/09/18 10:33:42;;;;;;;3.63;1.73;;;16.70;57.70;;;18.91;44.82;100849.25;5034631;28;20583;-54